CGNBR FPPR-FGSL
Flight info
| Callsign | CGNBR |
|---|---|
| Flight time | 1h 5m |
| Altitude | 2500 |
| Route | DIRECT |
| Aircraft | BE36/L-V/N |
Departure
| Time | 2026-05-04 18:05 |
|---|---|
| Airport | Principe Airport (FPPR) |
Arrival
| Time | 2026-05-04 19:11 |
|---|---|
| Airport | Malabo International Airport (FGSL) |
| Time | Latitude | Longitude | Altitude | Speed | Heading |
|---|---|---|---|---|---|
| 2026-05-04 17:56 | 1.66529 | 7.41236 | 562 ft | 0 kts | 75° |
| 2026-05-04 17:59 | 1.66541 | 7.41240 | 551 ft | 3 kts | 330° |
| 2026-05-04 17:59 | 1.66543 | 7.41227 | 552 ft | 0 kts | 263° |
| 2026-05-04 18:02 | 1.66533 | 7.41213 | 551 ft | 4 kts | 221° |
| 2026-05-04 18:02 | 1.66508 | 7.41191 | 549 ft | 5 kts | 221° |
| 2026-05-04 18:02 | 1.66491 | 7.41160 | 552 ft | 6 kts | 248° |
| 2026-05-04 18:03 | 1.66484 | 7.41128 | 552 ft | 0 kts | 260° |
| 2026-05-04 18:03 | 1.66475 | 7.41109 | 551 ft | 3 kts | 195° |
| 2026-05-04 18:04 | 1.66473 | 7.41108 | 550 ft | 0 kts | 187° |
| 2026-05-04 18:05 | 1.66332 | 7.41108 | 546 ft | 61 kts | 179° |
| 2026-05-04 18:05 | 1.65720 | 7.41119 | 673 ft | 105 kts | 178° |
| 2026-05-04 18:05 | 1.64981 | 7.41240 | 1009 ft | 118 kts | 148° |
| 2026-05-04 18:05 | 1.64643 | 7.42028 | 1215 ft | 141 kts | 85° |
| 2026-05-04 18:06 | 1.66166 | 7.43431 | 1626 ft | 163 kts | 31° |
| 2026-05-04 18:06 | 1.67171 | 7.44000 | 1794 ft | 169 kts | 32° |
| 2026-05-04 18:06 | 1.68202 | 7.44598 | 1966 ft | 173 kts | 32° |
| 2026-05-04 18:07 | 1.69243 | 7.45205 | 2136 ft | 174 kts | 31° |
| 2026-05-04 18:07 | 1.70289 | 7.45812 | 2310 ft | 174 kts | 31° |
| 2026-05-04 18:07 | 1.71340 | 7.46427 | 2379 ft | 179 kts | 31° |
| 2026-05-04 18:07 | 1.72429 | 7.47073 | 2376 ft | 185 kts | 31° |
| 2026-05-04 18:08 | 1.73532 | 7.47732 | 2378 ft | 189 kts | 31° |
| 2026-05-04 18:08 | 1.74688 | 7.48419 | 2377 ft | 192 kts | 31° |
| 2026-05-04 18:08 | 1.75823 | 7.49095 | 2376 ft | 192 kts | 31° |
| 2026-05-04 18:08 | 1.76969 | 7.49775 | 2376 ft | 191 kts | 32° |
| 2026-05-04 18:09 | 1.79256 | 7.51128 | 2378 ft | 192 kts | 31° |
| 2026-05-04 18:09 | 1.81559 | 7.52506 | 2377 ft | 193 kts | 33° |
| 2026-05-04 18:10 | 1.82712 | 7.53202 | 2377 ft | 194 kts | 32° |
| 2026-05-04 18:10 | 1.83866 | 7.53897 | 2377 ft | 193 kts | 32° |
| 2026-05-04 18:10 | 1.85014 | 7.54586 | 2375 ft | 192 kts | 32° |
| 2026-05-04 18:10 | 1.86157 | 7.55273 | 2377 ft | 192 kts | 32° |
| 2026-05-04 18:11 | 1.87305 | 7.55957 | 2377 ft | 192 kts | 32° |
| 2026-05-04 18:11 | 1.88456 | 7.56644 | 2378 ft | 193 kts | 32° |
| 2026-05-04 18:11 | 1.89607 | 7.57332 | 2375 ft | 193 kts | 31° |
| 2026-05-04 18:11 | 1.90754 | 7.58023 | 2371 ft | 192 kts | 32° |
| 2026-05-04 18:12 | 1.91899 | 7.58719 | 2382 ft | 193 kts | 31° |
| 2026-05-04 18:12 | 1.93044 | 7.59423 | 2381 ft | 193 kts | 32° |
| 2026-05-04 18:12 | 1.94172 | 7.60128 | 2369 ft | 194 kts | 31° |
| 2026-05-04 18:12 | 1.95312 | 7.60843 | 2368 ft | 193 kts | 32° |
| 2026-05-04 18:13 | 1.96445 | 7.61553 | 2367 ft | 192 kts | 32° |
| 2026-05-04 18:13 | 1.97578 | 7.62258 | 2368 ft | 191 kts | 32° |
| 2026-05-04 18:13 | 1.99802 | 7.63629 | 2365 ft | 173 kts | 31° |
| 2026-05-04 18:14 | 2.00758 | 7.64223 | 2351 ft | 151 kts | 32° |
| 2026-05-04 18:14 | 2.01600 | 7.64753 | 2354 ft | 136 kts | 31° |
| 2026-05-04 18:14 | 2.02364 | 7.65235 | 2350 ft | 124 kts | 32° |
| 2026-05-04 18:15 | 2.03901 | 7.66218 | 2360 ft | 140 kts | 32° |
| 2026-05-04 18:15 | 2.05574 | 7.67273 | 2473 ft | 139 kts | 32° |
| 2026-05-04 18:15 | 2.06386 | 7.67784 | 2593 ft | 137 kts | 32° |
| 2026-05-04 18:16 | 2.07176 | 7.68279 | 2707 ft | 135 kts | 31° |
| 2026-05-04 18:16 | 2.07959 | 7.68778 | 2826 ft | 132 kts | 32° |
| 2026-05-04 18:16 | 2.08728 | 7.69270 | 2945 ft | 131 kts | 32° |
| 2026-05-04 18:17 | 2.10246 | 7.70235 | 3181 ft | 127 kts | 32° |
| 2026-05-04 18:17 | 2.10992 | 7.70710 | 3297 ft | 127 kts | 32° |
| 2026-05-04 18:17 | 2.12515 | 7.71672 | 3392 ft | 135 kts | 32° |
| 2026-05-04 18:18 | 2.13324 | 7.72180 | 3404 ft | 139 kts | 32° |
| 2026-05-04 18:18 | 2.14154 | 7.72703 | 3403 ft | 143 kts | 32° |
| 2026-05-04 18:18 | 2.14997 | 7.73237 | 3405 ft | 144 kts | 32° |
| 2026-05-04 18:18 | 2.15850 | 7.73777 | 3403 ft | 145 kts | 32° |
| 2026-05-04 18:19 | 2.17555 | 7.74853 | 3404 ft | 146 kts | 32° |
| 2026-05-04 18:19 | 2.18418 | 7.75399 | 3403 ft | 147 kts | 32° |
| 2026-05-04 18:19 | 2.19285 | 7.75948 | 3404 ft | 148 kts | 32° |
| 2026-05-04 18:20 | 2.20154 | 7.76497 | 3402 ft | 148 kts | 32° |
| 2026-05-04 18:20 | 2.21026 | 7.77045 | 3403 ft | 148 kts | 32° |
| 2026-05-04 18:20 | 2.21899 | 7.77596 | 3402 ft | 148 kts | 32° |
| 2026-05-04 18:20 | 2.22768 | 7.78144 | 3402 ft | 148 kts | 32° |
| 2026-05-04 18:21 | 2.23634 | 7.78692 | 3403 ft | 147 kts | 32° |
| 2026-05-04 18:21 | 2.24503 | 7.79239 | 3403 ft | 147 kts | 32° |
| 2026-05-04 18:21 | 2.25359 | 7.79778 | 3403 ft | 147 kts | 32° |
| 2026-05-04 18:21 | 2.26228 | 7.80326 | 3402 ft | 147 kts | 32° |
| 2026-05-04 18:22 | 2.27095 | 7.80873 | 3400 ft | 147 kts | 31° |
| 2026-05-04 18:22 | 2.27962 | 7.81425 | 3398 ft | 147 kts | 32° |
| 2026-05-04 18:22 | 2.28826 | 7.81977 | 3398 ft | 147 kts | 32° |
| 2026-05-04 18:22 | 2.29690 | 7.82530 | 3400 ft | 148 kts | 32° |
| 2026-05-04 18:23 | 2.30557 | 7.83088 | 3400 ft | 149 kts | 32° |
| 2026-05-04 18:23 | 2.31431 | 7.83648 | 3401 ft | 149 kts | 32° |
| 2026-05-04 18:23 | 2.32307 | 7.84205 | 3400 ft | 149 kts | 32° |
| 2026-05-04 18:23 | 2.33182 | 7.84767 | 3399 ft | 149 kts | 32° |
| 2026-05-04 18:24 | 2.34052 | 7.85329 | 3398 ft | 148 kts | 32° |
| 2026-05-04 18:24 | 2.34918 | 7.85889 | 3397 ft | 148 kts | 32° |
| 2026-05-04 18:24 | 2.35783 | 7.86448 | 3397 ft | 147 kts | 32° |
| 2026-05-04 18:24 | 2.36635 | 7.86995 | 3397 ft | 147 kts | 32° |
| 2026-05-04 18:25 | 2.37500 | 7.87551 | 3398 ft | 148 kts | 32° |
| 2026-05-04 18:25 | 2.38371 | 7.88110 | 3398 ft | 149 kts | 32° |
| 2026-05-04 18:25 | 2.39244 | 7.88668 | 3399 ft | 149 kts | 32° |
| 2026-05-04 18:25 | 2.40119 | 7.89227 | 3399 ft | 149 kts | 32° |
| 2026-05-04 18:26 | 2.40993 | 7.89790 | 3399 ft | 149 kts | 32° |
| 2026-05-04 18:26 | 2.41864 | 7.90356 | 3398 ft | 149 kts | 32° |
| 2026-05-04 18:26 | 2.42723 | 7.90912 | 3403 ft | 148 kts | 32° |
| 2026-05-04 18:26 | 2.43591 | 7.91470 | 3401 ft | 148 kts | 32° |
| 2026-05-04 18:27 | 2.44463 | 7.92030 | 3401 ft | 149 kts | 32° |
| 2026-05-04 18:27 | 2.45334 | 7.92590 | 3400 ft | 149 kts | 32° |
| 2026-05-04 18:27 | 2.46203 | 7.93152 | 3400 ft | 148 kts | 32° |
| 2026-05-04 18:27 | 2.47069 | 7.93709 | 3401 ft | 148 kts | 32° |
| 2026-05-04 18:28 | 2.47936 | 7.94261 | 3394 ft | 148 kts | 32° |
| 2026-05-04 18:28 | 2.48804 | 7.94817 | 3390 ft | 148 kts | 32° |
| 2026-05-04 18:28 | 2.49674 | 7.95376 | 3389 ft | 149 kts | 32° |
| 2026-05-04 18:28 | 2.50550 | 7.95937 | 3390 ft | 150 kts | 32° |
| 2026-05-04 18:29 | 2.51425 | 7.96495 | 3389 ft | 149 kts | 31° |
| 2026-05-04 18:29 | 2.52299 | 7.97057 | 3389 ft | 149 kts | 32° |
| 2026-05-04 18:29 | 2.53171 | 7.97627 | 3387 ft | 152 kts | 32° |
| 2026-05-04 18:29 | 2.54052 | 7.98225 | 3389 ft | 158 kts | 32° |
| 2026-05-04 18:30 | 2.55914 | 7.99465 | 3397 ft | 163 kts | 32° |
| 2026-05-04 18:30 | 2.56869 | 8.00098 | 3399 ft | 165 kts | 32° |
| 2026-05-04 18:30 | 2.57831 | 8.00735 | 3401 ft | 166 kts | 32° |
| 2026-05-04 18:31 | 2.58798 | 8.01372 | 3399 ft | 167 kts | 32° |
| 2026-05-04 18:31 | 2.59771 | 8.02008 | 3397 ft | 167 kts | 32° |
| 2026-05-04 18:31 | 2.60740 | 8.02652 | 3398 ft | 168 kts | 32° |
| 2026-05-04 18:31 | 2.61713 | 8.03300 | 3398 ft | 168 kts | 32° |
| 2026-05-04 18:32 | 2.62690 | 8.03947 | 3399 ft | 168 kts | 32° |
| 2026-05-04 18:32 | 2.63667 | 8.04587 | 3397 ft | 168 kts | 32° |
| 2026-05-04 18:32 | 2.64642 | 8.05227 | 3398 ft | 167 kts | 30° |
| 2026-05-04 18:32 | 2.65612 | 8.05868 | 3397 ft | 167 kts | 32° |
| 2026-05-04 18:33 | 2.66576 | 8.06514 | 3399 ft | 166 kts | 32° |
| 2026-05-04 18:33 | 2.67540 | 8.07152 | 3399 ft | 166 kts | 32° |
| 2026-05-04 18:33 | 2.68506 | 8.07797 | 3396 ft | 167 kts | 32° |
| 2026-05-04 18:33 | 2.69464 | 8.08434 | 3393 ft | 168 kts | 31° |
| 2026-05-04 18:34 | 2.70444 | 8.09076 | 3384 ft | 168 kts | 32° |
| 2026-05-04 18:34 | 2.71425 | 8.09715 | 3379 ft | 168 kts | 32° |
| 2026-05-04 18:34 | 2.72397 | 8.10358 | 3381 ft | 167 kts | 31° |
| 2026-05-04 18:34 | 2.73362 | 8.11006 | 3386 ft | 166 kts | 32° |
| 2026-05-04 18:35 | 2.74326 | 8.11648 | 3382 ft | 166 kts | 32° |
| 2026-05-04 18:35 | 2.75293 | 8.12290 | 3382 ft | 167 kts | 32° |
| 2026-05-04 18:35 | 2.76262 | 8.12932 | 3379 ft | 167 kts | 31° |
| 2026-05-04 18:35 | 2.77232 | 8.13575 | 3388 ft | 167 kts | 32° |
| 2026-05-04 18:36 | 2.78200 | 8.14216 | 3394 ft | 167 kts | 32° |
| 2026-05-04 18:36 | 2.79158 | 8.14846 | 3396 ft | 167 kts | 32° |
| 2026-05-04 18:36 | 2.80129 | 8.15491 | 3394 ft | 168 kts | 32° |
| 2026-05-04 18:36 | 2.81104 | 8.16140 | 3393 ft | 168 kts | 32° |
| 2026-05-04 18:37 | 2.82080 | 8.16788 | 3393 ft | 168 kts | 32° |
| 2026-05-04 18:37 | 2.83053 | 8.17425 | 3391 ft | 167 kts | 31° |
| 2026-05-04 18:37 | 2.84021 | 8.18065 | 3392 ft | 167 kts | 31° |
| 2026-05-04 18:37 | 2.84985 | 8.18712 | 3390 ft | 167 kts | 32° |
| 2026-05-04 18:38 | 2.85953 | 8.19356 | 3391 ft | 167 kts | 32° |
| 2026-05-04 18:38 | 2.86921 | 8.19996 | 3392 ft | 167 kts | 31° |
| 2026-05-04 18:38 | 2.87892 | 8.20642 | 3392 ft | 168 kts | 32° |
| 2026-05-04 18:38 | 2.88854 | 8.21282 | 3394 ft | 168 kts | 32° |
| 2026-05-04 18:39 | 2.89831 | 8.21928 | 3393 ft | 168 kts | 32° |
| 2026-05-04 18:39 | 2.90808 | 8.22569 | 3395 ft | 167 kts | 33° |
| 2026-05-04 18:39 | 2.91771 | 8.23220 | 3398 ft | 167 kts | 33° |
| 2026-05-04 18:39 | 2.92744 | 8.23845 | 3395 ft | 166 kts | 30° |
| 2026-05-04 18:40 | 2.93721 | 8.24474 | 3391 ft | 167 kts | 30° |
| 2026-05-04 18:40 | 2.94701 | 8.25106 | 3390 ft | 167 kts | 31° |
| 2026-05-04 18:40 | 2.95681 | 8.25742 | 3389 ft | 168 kts | 31° |
| 2026-05-04 18:40 | 2.96657 | 8.26385 | 3387 ft | 168 kts | 32° |
| 2026-05-04 18:41 | 2.97619 | 8.27019 | 3388 ft | 168 kts | 31° |
| 2026-05-04 18:41 | 2.98597 | 8.27663 | 3390 ft | 168 kts | 31° |
| 2026-05-04 18:41 | 2.99574 | 8.28309 | 3389 ft | 168 kts | 32° |
| 2026-05-04 18:41 | 3.00553 | 8.28956 | 3394 ft | 170 kts | 31° |
| 2026-05-04 18:42 | 3.01529 | 8.29600 | 3491 ft | 167 kts | 32° |
| 2026-05-04 18:42 | 3.02515 | 8.30241 | 3490 ft | 170 kts | 30° |
| 2026-05-04 18:42 | 3.03521 | 8.30883 | 3491 ft | 172 kts | 31° |
| 2026-05-04 18:42 | 3.04531 | 8.31538 | 3491 ft | 174 kts | 32° |
| 2026-05-04 18:43 | 3.05540 | 8.32197 | 3578 ft | 170 kts | 31° |
| 2026-05-04 18:43 | 3.06519 | 8.32845 | 3785 ft | 166 kts | 33° |
| 2026-05-04 18:43 | 3.07470 | 8.33471 | 4021 ft | 162 kts | 33° |
| 2026-05-04 18:43 | 3.08406 | 8.34074 | 4260 ft | 158 kts | 33° |
| 2026-05-04 18:44 | 3.09315 | 8.34656 | 4508 ft | 155 kts | 33° |
| 2026-05-04 18:44 | 3.09621 | 8.34853 | 4595 ft | 154 kts | 33° |
| 2026-05-04 18:44 | 3.11119 | 8.35792 | 4977 ft | 151 kts | 32° |
| 2026-05-04 18:44 | 3.12008 | 8.36341 | 5213 ft | 149 kts | 32° |
| 2026-05-04 18:45 | 3.12894 | 8.36873 | 5447 ft | 148 kts | 31° |
| 2026-05-04 18:45 | 3.13810 | 8.37407 | 5503 ft | 158 kts | 31° |
| 2026-05-04 18:45 | 3.14786 | 8.37984 | 5513 ft | 166 kts | 32° |
| 2026-05-04 18:45 | 3.15797 | 8.38577 | 5515 ft | 170 kts | 32° |
| 2026-05-04 18:46 | 3.16821 | 8.39186 | 5513 ft | 172 kts | 33° |
| 2026-05-04 18:46 | 3.17502 | 8.39598 | 5511 ft | 174 kts | 33° |
| 2026-05-04 18:46 | 3.18545 | 8.40227 | 5513 ft | 176 kts | 32° |
| 2026-05-04 18:46 | 3.19596 | 8.40837 | 5510 ft | 173 kts | 31° |
| 2026-05-04 18:47 | 3.20953 | 8.41631 | 5507 ft | 169 kts | 32° |
| 2026-05-04 18:47 | 3.21958 | 8.42230 | 5506 ft | 167 kts | 32° |
| 2026-05-04 18:47 | 3.22632 | 8.42633 | 5505 ft | 167 kts | 32° |
| 2026-05-04 18:47 | 3.23629 | 8.43224 | 5504 ft | 166 kts | 32° |
| 2026-05-04 18:48 | 3.24620 | 8.43809 | 5503 ft | 165 kts | 32° |
| 2026-05-04 18:48 | 3.25610 | 8.44397 | 5502 ft | 166 kts | 32° |
| 2026-05-04 18:48 | 3.26601 | 8.44992 | 5502 ft | 166 kts | 32° |
| 2026-05-04 18:48 | 3.27597 | 8.45587 | 5499 ft | 167 kts | 32° |
| 2026-05-04 18:49 | 3.28584 | 8.46165 | 5498 ft | 166 kts | 32° |
| 2026-05-04 18:49 | 3.29579 | 8.46746 | 5499 ft | 166 kts | 32° |
| 2026-05-04 18:49 | 3.30572 | 8.47336 | 5502 ft | 166 kts | 32° |
| 2026-05-04 18:49 | 3.31519 | 8.47903 | 5712 ft | 153 kts | 32° |
| 2026-05-04 18:50 | 3.32418 | 8.48441 | 5922 ft | 147 kts | 32° |
| 2026-05-04 18:50 | 3.33283 | 8.48948 | 6132 ft | 143 kts | 33° |
| 2026-05-04 18:50 | 3.34129 | 8.49433 | 6347 ft | 138 kts | 32° |
| 2026-05-04 18:50 | 3.34960 | 8.49911 | 6498 ft | 140 kts | 33° |
| 2026-05-04 18:51 | 3.35823 | 8.50426 | 6506 ft | 148 kts | 41° |
| 2026-05-04 18:51 | 3.36511 | 8.51182 | 6627 ft | 145 kts | 53° |
| 2026-05-04 18:51 | 3.37138 | 8.51953 | 6795 ft | 141 kts | 54° |
| 2026-05-04 18:51 | 3.37766 | 8.52695 | 6948 ft | 137 kts | 53° |
| 2026-05-04 18:52 | 3.38388 | 8.53442 | 7005 ft | 145 kts | 52° |
| 2026-05-04 18:52 | 3.39044 | 8.54248 | 7010 ft | 152 kts | 52° |
| 2026-05-04 18:52 | 3.39724 | 8.55078 | 7018 ft | 155 kts | 52° |
| 2026-05-04 18:52 | 3.40415 | 8.55918 | 7016 ft | 158 kts | 52° |
| 2026-05-04 18:53 | 3.41116 | 8.56769 | 7013 ft | 160 kts | 52° |
| 2026-05-04 18:53 | 3.41823 | 8.57628 | 7015 ft | 160 kts | 52° |
| 2026-05-04 18:53 | 3.42529 | 8.58487 | 7015 ft | 160 kts | 52° |
| 2026-05-04 18:53 | 3.43236 | 8.59345 | 7015 ft | 160 kts | 52° |
| 2026-05-04 18:54 | 3.43933 | 8.60192 | 7011 ft | 160 kts | 52° |
| 2026-05-04 18:54 | 3.44640 | 8.61050 | 7010 ft | 159 kts | 52° |
| 2026-05-04 18:54 | 3.45343 | 8.61903 | 7009 ft | 159 kts | 52° |
| 2026-05-04 18:54 | 3.46043 | 8.62756 | 7010 ft | 159 kts | 52° |
| 2026-05-04 18:55 | 3.46749 | 8.63607 | 7009 ft | 158 kts | 52° |
| 2026-05-04 18:55 | 3.48147 | 8.65295 | 7094 ft | 152 kts | 52° |
| 2026-05-04 18:55 | 3.48806 | 8.66093 | 7245 ft | 146 kts | 52° |
| 2026-05-04 18:56 | 3.49452 | 8.66868 | 7429 ft | 143 kts | 52° |
| 2026-05-04 18:56 | 3.50080 | 8.67622 | 7633 ft | 139 kts | 52° |
| 2026-05-04 18:56 | 3.50696 | 8.68351 | 7839 ft | 135 kts | 52° |
| 2026-05-04 18:56 | 3.51293 | 8.69058 | 8047 ft | 131 kts | 50° |
| 2026-05-04 18:57 | 3.51888 | 8.69741 | 8250 ft | 129 kts | 47° |
| 2026-05-04 18:57 | 3.52747 | 8.69995 | 8478 ft | 137 kts | 4° |
| 2026-05-04 18:57 | 3.53691 | 8.69960 | 8680 ft | 130 kts | 24° |
| 2026-05-04 18:57 | 3.54441 | 8.70373 | 8919 ft | 119 kts | 40° |
| 2026-05-04 18:58 | 3.55085 | 8.70880 | 9159 ft | 117 kts | 49° |
| 2026-05-04 18:58 | 3.55646 | 8.71458 | 9384 ft | 118 kts | 50° |
| 2026-05-04 18:58 | 3.56204 | 8.72058 | 9613 ft | 118 kts | 51° |
| 2026-05-04 18:58 | 3.56754 | 8.72658 | 9830 ft | 115 kts | 51° |
| 2026-05-04 18:59 | 3.57298 | 8.73293 | 9816 ft | 124 kts | 57° |
| 2026-05-04 18:59 | 3.57829 | 8.74002 | 9815 ft | 128 kts | 57° |
| 2026-05-04 18:59 | 3.58262 | 8.74747 | 9812 ft | 120 kts | 74° |
| 2026-05-04 18:59 | 3.58499 | 8.75557 | 9691 ft | 119 kts | 68° |
| 2026-05-04 19:00 | 3.58763 | 8.76215 | 9498 ft | 80 kts | 81° |
| 2026-05-04 19:00 | 3.58826 | 8.76771 | 9322 ft | 97 kts | 62° |
| 2026-05-04 19:00 | 3.59294 | 8.77316 | 9423 ft | 110 kts | 45° |
| 2026-05-04 19:00 | 3.60132 | 8.77454 | 9328 ft | 147 kts | 356° |
| 2026-05-04 19:01 | 3.61089 | 8.76872 | 9222 ft | 168 kts | 331° |
| 2026-05-04 19:01 | 3.62001 | 8.76146 | 9078 ft | 163 kts | 331° |
| 2026-05-04 19:01 | 3.62812 | 8.75497 | 8966 ft | 145 kts | 331° |
| 2026-05-04 19:01 | 3.63593 | 8.74849 | 8853 ft | 150 kts | 330° |
| 2026-05-04 19:02 | 3.64425 | 8.74170 | 8738 ft | 158 kts | 330° |
| 2026-05-04 19:02 | 3.65306 | 8.73471 | 8626 ft | 164 kts | 330° |
| 2026-05-04 19:02 | 3.66217 | 8.72760 | 8513 ft | 168 kts | 330° |
| 2026-05-04 19:02 | 3.67151 | 8.72044 | 8398 ft | 170 kts | 330° |
| 2026-05-04 19:03 | 3.68090 | 8.71333 | 8284 ft | 172 kts | 330° |
| 2026-05-04 19:03 | 3.69054 | 8.70617 | 8167 ft | 173 kts | 330° |
| 2026-05-04 19:03 | 3.70011 | 8.69909 | 8033 ft | 162 kts | 330° |
| 2026-05-04 19:03 | 3.70934 | 8.69285 | 7120 ft | 146 kts | 354° |
| 2026-05-04 19:04 | 3.71810 | 8.69292 | 4432 ft | 142 kts | 19° |
| 2026-05-04 19:04 | 3.72725 | 8.69721 | 1453 ft | 162 kts | 25° |
| 2026-05-04 19:04 | 3.73594 | 8.70186 | 975 ft | 116 kts | 32° |
| 2026-05-04 19:04 | 3.74325 | 8.70674 | 710 ft | 133 kts | 35° |
| 2026-05-04 19:05 | 3.74997 | 8.71220 | 848 ft | 117 kts | 37° |
| 2026-05-04 19:05 | 3.75591 | 8.71736 | 910 ft | 114 kts | 47° |
| 2026-05-04 19:05 | 3.76022 | 8.72348 | 1007 ft | 104 kts | 68° |
| 2026-05-04 19:05 | 3.76259 | 8.73068 | 1021 ft | 115 kts | 71° |
| 2026-05-04 19:06 | 3.76514 | 8.73874 | 1122 ft | 128 kts | 75° |
| 2026-05-04 19:06 | 3.76881 | 8.74685 | 1266 ft | 127 kts | 40° |
| 2026-05-04 19:06 | 3.77550 | 8.75171 | 1352 ft | 115 kts | 32° |
| 2026-05-04 19:06 | 3.78182 | 8.75617 | 1369 ft | 112 kts | 34° |
| 2026-05-04 19:07 | 3.78814 | 8.76085 | 1323 ft | 113 kts | 33° |
| 2026-05-04 19:07 | 3.79457 | 8.76554 | 1277 ft | 115 kts | 35° |
| 2026-05-04 19:07 | 3.80119 | 8.77019 | 1232 ft | 117 kts | 32° |
| 2026-05-04 19:07 | 3.80779 | 8.77490 | 1194 ft | 117 kts | 33° |
| 2026-05-04 19:08 | 3.81456 | 8.77503 | 1010 ft | 112 kts | 287° |
| 2026-05-04 19:08 | 3.81397 | 8.76806 | 1044 ft | 99 kts | 252° |
| 2026-05-04 19:08 | 3.81148 | 8.76208 | 1092 ft | 91 kts | 240° |
| 2026-05-04 19:08 | 3.80785 | 8.75659 | 1092 ft | 102 kts | 238° |
| 2026-05-04 19:09 | 3.80335 | 8.75069 | 1014 ft | 110 kts | 228° |
| 2026-05-04 19:09 | 3.79811 | 8.74507 | 1000 ft | 110 kts | 224° |
| 2026-05-04 19:09 | 3.79195 | 8.74028 | 844 ft | 118 kts | 219° |
| 2026-05-04 19:09 | 3.78568 | 8.73533 | 551 ft | 110 kts | 217° |
| 2026-05-04 19:10 | 3.78059 | 8.73099 | 499 ft | 86 kts | 225° |
| 2026-05-04 19:10 | 3.77607 | 8.72715 | 331 ft | 87 kts | 221° |
| 2026-05-04 19:10 | 3.77125 | 8.72284 | 203 ft | 98 kts | 222° |
| 2026-05-04 19:10 | 3.76636 | 8.71840 | 126 ft | 92 kts | 213° |
| 2026-05-04 19:11 | 3.76228 | 8.71506 | 61 ft | 64 kts | 220° |
| 2026-05-04 19:11 | 3.75893 | 8.71213 | 61 ft | 56 kts | 222° |
| 2026-05-04 19:11 | 3.75646 | 8.70985 | 65 ft | 33 kts | 218° |
| 2026-05-04 19:11 | 3.75592 | 8.71030 | 58 ft | 15 kts | 123° |
| 2026-05-04 19:12 | 3.75552 | 8.71079 | 64 ft | 0 kts | 132° |
| 2026-05-04 19:12 | 3.75414 | 8.71008 | 64 ft | 11 kts | 217° |
| 2026-05-04 19:12 | 3.75394 | 8.70995 | 64 ft | 0 kts | 214° |
| 2026-05-04 19:13 | 3.75341 | 8.70951 | 64 ft | 14 kts | 226° |
| 2026-05-04 19:13 | 3.75255 | 8.70864 | 64 ft | 19 kts | 221° |
| 2026-05-04 19:13 | 3.75138 | 8.70763 | 64 ft | 26 kts | 220° |
| 2026-05-04 19:13 | 3.75003 | 8.70655 | 58 ft | 22 kts | 215° |
| 2026-05-04 19:14 | 3.74896 | 8.70577 | 64 ft | 15 kts | 223° |
| 2026-05-04 19:14 | 3.74826 | 8.70621 | 64 ft | 11 kts | 124° |
| 2026-05-04 19:14 | 3.74833 | 8.70673 | 64 ft | 7 kts | 131° |
| 2026-05-04 19:14 | 3.74821 | 8.70656 | 59 ft | 4 kts | 279° |
| 2026-05-04 19:15 | 3.74822 | 8.70656 | 60 ft | 0 kts | 279° |